Time;durP1;ratioP1;P1;durP2;ratioP2;P2;SDS_P1;SDS_P2;PMS_P1;PMS_P2;Temp;Humidity;BMP_temperature;BMP_pressure;BME280_temperature;BME280_humidity;BME280_pressure;Samples;Min_cycle;Max_cycle;Signal;HPM_P1;HPM_P2
2021/09/17 00:01:26;;;;;;;20.42;16.92;;;13.60;99.90;;;;;;5007729;28;20173;-56
2021/09/17 00:03:51;;;;;;;24.92;18.25;;;13.60;99.90;;;;;;4994797;28;20038;-56
2021/09/17 00:06:17;;;;;;;24.35;18.52;;;13.60;99.90;;;;;;4994805;28;20041;-56
2021/09/17 00:08:43;;;;;;;29.20;21.80;;;13.60;99.90;;;;;;4993808;28;20072;-56
2021/09/17 00:11:09;;;;;;;34.22;22.98;;;13.60;99.90;;;;;;5006001;28;20065;-56
2021/09/17 00:13:35;;;;;;;30.45;22.38;;;13.60;99.90;;;;;;4988751;28;20104;-56
2021/09/17 00:16:01;;;;;;;30.38;23.48;;;13.60;99.90;;;;;;5005744;28;20042;-56
2021/09/17 00:18:26;;;;;;;37.78;25.67;;;13.60;99.90;;;;;;5008937;28;20056;-56
2021/09/17 00:20:52;;;;;;;37.95;25.65;;;13.70;99.90;;;;;;5003483;28;20042;-56
2021/09/17 00:23:18;;;;;;;34.83;25.50;;;13.70;99.90;;;;;;5012651;28;20125;-56
2021/09/17 00:25:43;;;;;;;38.03;25.30;;;13.70;99.90;;;;;;5012501;28;20053;-56
2021/09/17 00:28:09;;;;;;;35.38;24.38;;;13.70;99.90;;;;;;5012490;28;20399;-56
2021/09/17 00:30:34;;;;;;;33.95;24.58;;;13.70;99.90;;;;;;4995145;28;20045;-56
2021/09/17 00:33:00;;;;;;;37.10;25.70;;;13.70;99.90;;;;;;5012651;28;20038;-56
2021/09/17 00:35:26;;;;;;;35.15;24.98;;;13.70;99.90;;;;;;5007467;28;20086;-56
2021/09/17 00:37:53;;;;;;;36.88;24.70;;;13.70;99.90;;;;;;5001498;28;20038;-56
2021/09/17 00:40:18;;;;;;;33.90;24.40;;;13.70;99.90;;;;;;4978590;28;20049;-56
2021/09/17 00:42:44;;;;;;;36.38;25.40;;;13.70;99.90;;;;;;5011606;28;20041;-55
2021/09/17 00:45:11;;;;;;;37.67;25.67;;;13.70;99.90;;;;;;5009779;28;20615;-56
2021/09/17 00:47:38;;;;;;;35.42;23.83;;;13.70;99.90;;;;;;4984102;28;20427;-56
2021/09/17 00:50:06;;;;;;;35.25;24.48;;;13.70;99.90;;;;;;5012744;28;20088;-56
2021/09/17 00:52:32;;;;;;;37.65;25.77;;;13.70;99.90;;;;;;5004372;28;20057;-56
2021/09/17 00:54:58;;;;;;;35.58;25.83;;;13.60;99.90;;;;;;5010775;28;20042;-54
2021/09/17 00:57:24;;;;;;;43.08;27.08;;;13.60;99.90;;;;;;5024552;28;20042;-55
2021/09/17 00:59:50;;;;;;;35.75;25.95;;;13.60;99.90;;;;;;5011245;28;20056;-55
2021/09/17 01:02:16;;;;;;;28.48;21.27;;;13.60;99.90;;;;;;4979250;28;20132;-56
2021/09/17 01:04:42;;;;;;;26.17;20.10;;;13.60;99.90;;;;;;5011850;28;20350;-52
2021/09/17 01:07:08;;;;;;;27.17;19.95;;;13.60;99.90;;;;;;5025852;28;20037;-53
2021/09/17 01:09:34;;;;;;;29.17;21.08;;;13.50;99.90;;;;;;4984726;28;20050;-56
2021/09/17 01:12:03;;;;;;;33.17;21.02;;;13.50;99.90;;;;;;5000463;28;20053;-53
2021/09/17 01:14:33;;;;;;;40.60;26.27;;;13.50;99.90;;;;;;5011668;28;20376;-53
2021/09/17 01:16:58;;;;;;;39.53;25.85;;;13.40;99.90;;;;;;5011528;28;20034;-56
2021/09/17 01:19:24;;;;;;;35.05;23.45;;;13.40;99.90;;;;;;5012261;28;20048;-55
2021/09/17 01:22:16;;;;;;;46.70;29.58;;;13.40;99.90;;;;;;5011821;28;20045;-54
2021/09/17 01:24:42;;;;;;;57.60;31.35;;;13.40;99.90;;;;;;4964507;28;20521;-56
2021/09/17 01:27:08;;;;;;;41.90;29.00;;;13.40;99.90;;;;;;4998790;28;20042;-52
2021/09/17 01:29:34;;;;;;;44.22;28.75;;;13.40;99.90;;;;;;5003000;28;20502;-56
2021/09/17 01:32:00;;;;;;;44.28;28.70;;;13.40;99.90;;;;;;5011601;28;20109;-56
2021/09/17 01:34:26;;;;;;;53.75;31.20;;;13.40;99.90;;;;;;4993404;28;20042;-55
2021/09/17 01:36:53;;;;;;;126.60;34.55;;;13.40;99.90;;;;;;5011861;28;20076;-55
2021/09/17 01:39:20;;;;;;;96.95;33.75;;;13.40;99.90;;;;;;4968673;28;20045;-55
2021/09/17 01:41:47;;;;;;;154.05;35.20;;;13.40;99.90;;;;;;5003203;28;20088;-55
2021/09/17 01:44:14;;;;;;;99.93;35.10;;;13.30;99.90;;;;;;5005101;28;20042;-55
2021/09/17 01:46:39;;;;;;;256.75;38.17;;;13.30;99.90;;;;;;5011086;28;20050;-55
2021/09/17 01:49:05;;;;;;;271.65;40.25;;;13.30;99.90;;;;;;4969945;28;20121;-55
2021/09/17 01:51:30;;;;;;;77.43;33.72;;;13.30;99.90;;;;;;4997714;28;20035;-56
2021/09/17 01:53:56;;;;;;;79.28;30.13;;;13.30;99.90;;;;;;4981675;28;20049;-56
2021/09/17 01:56:23;;;;;;;50.10;28.70;;;13.30;99.90;;;;;;5008006;28;20029;-55
2021/09/17 01:58:50;;;;;;;40.58;26.13;;;13.30;99.90;;;;;;4980095;28;20502;-56
2021/09/17 02:01:16;;;;;;;40.72;26.08;;;13.30;99.90;;;;;;4987818;28;20029;-53
2021/09/17 02:03:42;;;;;;;211.10;32.58;;;13.30;99.90;;;;;;5006467;28;20434;-55
2021/09/17 02:06:07;;;;;;;188.45;30.63;;;13.30;99.90;;;;;;4975594;28;20121;-56
2021/09/17 02:08:33;;;;;;;126.80;27.52;;;13.30;99.90;;;;;;4993429;28;20030;-55
2021/09/17 02:10:59;;;;;;;234.50;33.38;;;13.20;99.90;;;;;;4992709;28;20053;-55
2021/09/17 02:13:25;;;;;;;90.65;30.75;;;13.20;99.90;;;;;;5004988;28;20388;-56
2021/09/17 02:15:52;;;;;;;97.00;28.88;;;13.20;99.90;;;;;;5004593;28;20088;-52
2021/09/17 02:18:19;;;;;;;108.25;29.75;;;13.10;99.90;;;;;;4993521;28;20085;-53
2021/09/17 02:20:46;;;;;;;163.52;32.55;;;13.20;99.90;;;;;;4994609;28;20081;-54
2021/09/17 02:23:12;;;;;;;101.63;29.85;;;13.10;99.90;;;;;;4992062;28;20039;-51
2021/09/17 02:25:38;;;;;;;36.28;26.83;;;13.20;99.90;;;;;;4959533;28;20668;-52
2021/09/17 02:28:04;;;;;;;53.67;28.27;;;13.20;99.90;;;;;;4986021;28;20050;-53
2021/09/17 02:30:30;;;;;;;41.63;28.35;;;13.10;99.90;;;;;;4991733;28;20453;-52
2021/09/17 02:32:55;;;;;;;53.90;28.63;;;13.10;99.90;;;;;;4991250;28;20392;-50
2021/09/17 02:35:21;;;;;;;47.90;29.52;;;13.20;99.90;;;;;;5010722;28;20033;-50
2021/09/17 02:37:47;;;;;;;58.88;32.05;;;13.20;99.90;;;;;;4983492;28;20045;-53
2021/09/17 02:40:15;;;;;;;47.63;31.38;;;13.20;99.90;;;;;;4958028;28;20042;-56
2021/09/17 02:42:41;;;;;;;49.05;31.65;;;13.20;99.90;;;;;;5000499;28;20033;-55
2021/09/17 02:45:08;;;;;;;35.13;25.13;;;13.20;99.90;;;;;;4987435;28;20439;-56
2021/09/17 02:47:34;;;;;;;45.95;28.85;;;13.30;99.90;;;;;;5001462;28;20406;-56
2021/09/17 02:50:00;;;;;;;39.17;27.45;;;13.30;99.90;;;;;;4999780;28;20042;-56
2021/09/17 02:52:25;;;;;;;37.85;26.27;;;13.30;99.90;;;;;;5005645;28;20040;-55
2021/09/17 02:54:51;;;;;;;32.08;22.67;;;13.30;99.90;;;;;;4996612;28;20041;-56
2021/09/17 02:57:18;;;;;;;34.58;23.98;;;13.30;99.90;;;;;;4996266;28;20074;-55
2021/09/17 02:59:44;;;;;;;47.03;31.13;;;13.30;99.90;;;;;;4978559;28;20061;-56
2021/09/17 03:02:10;;;;;;;40.70;28.40;;;13.30;99.90;;;;;;5021873;28;20042;-56
2021/09/17 03:04:35;;;;;;;37.03;26.73;;;13.30;99.90;;;;;;5008697;28;20037;-56
2021/09/17 03:07:01;;;;;;;36.42;24.27;;;13.30;99.90;;;;;;4999099;28;20042;-56
2021/09/17 03:09:26;;;;;;;35.55;25.08;;;13.30;99.90;;;;;;4999298;28;20045;-55
2021/09/17 03:11:53;;;;;;;50.30;26.70;;;13.20;99.90;;;;;;5025775;28;20046;-53
2021/09/17 03:14:18;;;;;;;60.45;27.98;;;13.20;99.90;;;;;;4994809;28;20042;-53
2021/09/17 03:16:44;;;;;;;82.85;31.75;;;13.20;99.90;;;;;;5024394;28;20048;-50
2021/09/17 03:19:09;;;;;;;68.45;32.00;;;13.20;99.90;;;;;;4991726;28;20045;-54
2021/09/17 03:21:35;;;;;;;101.30;34.47;;;13.20;99.90;;;;;;4994950;28;20061;-55
2021/09/17 03:24:01;;;;;;;51.60;33.05;;;13.10;99.90;;;;;;5002968;28;20218;-54
2021/09/17 03:26:26;;;;;;;54.80;33.75;;;13.10;99.90;;;;;;5011571;28;20042;-52
2021/09/17 03:28:52;;;;;;;70.15;35.90;;;13.20;99.90;;;;;;5002858;28;20030;-53
2021/09/17 03:31:18;;;;;;;90.82;36.53;;;13.20;99.90;;;;;;5006569;28;20038;-52
2021/09/17 03:33:43;;;;;;;99.32;37.78;;;13.20;99.90;;;;;;4995960;28;20050;-55
2021/09/17 03:36:09;;;;;;;148.43;39.45;;;13.20;99.90;;;;;;4997053;28;20034;-56
2021/09/17 03:38:34;;;;;;;67.13;36.17;;;13.20;99.90;;;;;;4999270;28;20077;-56
2021/09/17 03:41:00;;;;;;;86.63;36.38;;;13.20;99.90;;;;;;5012317;28;20045;-56
2021/09/17 03:43:25;;;;;;;74.82;37.15;;;13.30;99.90;;;;;;4995634;28;20043;-56
2021/09/17 03:45:51;;;;;;;92.35;35.03;;;13.30;99.90;;;;;;5004098;28;20042;-56
2021/09/17 03:48:17;;;;;;;65.70;32.10;;;13.30;99.90;;;;;;4993729;28;20058;-56
2021/09/17 03:50:42;;;;;;;48.97;31.55;;;13.30;99.90;;;;;;4993884;28;20487;-56
2021/09/17 03:53:08;;;;;;;47.10;32.05;;;13.30;99.90;;;;;;4999829;28;20034;-57
2021/09/17 03:55:34;;;;;;;51.65;31.85;;;13.20;99.90;;;;;;4990460;28;20124;-55
2021/09/17 03:58:01;;;;;;;74.72;32.25;;;13.20;99.90;;;;;;5010894;28;20495;-55
2021/09/17 04:00:27;;;;;;;84.75;31.95;;;13.20;99.90;;;;;;4999096;28;20049;-56
2021/09/17 04:02:52;;;;;;;49.38;31.17;;;13.20;99.90;;;;;;5009266;28;20042;-56
2021/09/17 04:05:18;;;;;;;42.97;29.88;;;13.20;99.90;;;;;;5004728;28;20042;-55
2021/09/17 04:07:44;;;;;;;40.88;28.88;;;13.20;99.90;;;;;;5015476;28;20073;-55
2021/09/17 04:10:12;;;;;;;43.22;30.13;;;13.20;99.90;;;;;;5006829;28;20042;-55
2021/09/17 04:12:38;;;;;;;43.33;29.90;;;13.20;99.90;;;;;;4998122;28;20081;-55
2021/09/17 04:15:04;;;;;;;128.60;30.88;;;13.20;99.90;;;;;;4975572;28;20073;-56
2021/09/17 04:17:30;;;;;;;134.15;32.63;;;13.10;99.90;;;;;;5013123;28;20469;-55
2021/09/17 04:19:55;;;;;;;67.18;32.15;;;13.10;99.90;;;;;;4999654;28;20046;-54
2021/09/17 04:22:21;;;;;;;49.72;31.10;;;13.10;99.90;;;;;;5008585;28;20052;-50
2021/09/17 04:24:47;;;;;;;289.60;38.15;;;13.10;99.90;;;;;;5001298;28;20034;-54
2021/09/17 04:27:12;;;;;;;160.88;35.17;;;13.00;99.90;;;;;;4999834;28;20076;-51
2021/09/17 04:29:38;;;;;;;152.20;34.28;;;13.10;99.90;;;;;;5000019;28;20046;-52
2021/09/17 04:32:04;;;;;;;72.95;33.55;;;13.00;99.90;;;;;;5000211;28;20038;-50
2021/09/17 04:34:29;;;;;;;186.18;34.65;;;13.00;99.90;;;;;;4994212;28;20045;-50
2021/09/17 04:36:55;;;;;;;172.55;34.25;;;13.00;99.90;;;;;;5011246;28;20038;-53
2021/09/17 04:39:21;;;;;;;172.00;34.47;;;13.00;99.90;;;;;;5013966;28;20422;-53
2021/09/17 04:41:47;;;;;;;248.80;35.30;;;13.00;99.90;;;;;;5007205;28;20065;-50
2021/09/17 04:44:12;;;;;;;118.70;34.25;;;13.00;99.90;;;;;;4980837;28;20038;-50
2021/09/17 04:46:38;;;;;;;208.88;36.10;;;13.00;99.90;;;;;;4997684;28;20507;-50
2021/09/17 04:49:03;;;;;;;156.18;34.30;;;13.00;99.90;;;;;;4996313;28;20142;-53
2021/09/17 04:51:30;;;;;;;98.28;31.40;;;13.00;99.90;;;;;;4992696;28;20038;-55
2021/09/17 04:53:56;;;;;;;39.78;30.55;;;12.90;99.90;;;;;;5011996;28;20117;-53
2021/09/17 04:56:22;;;;;;;37.40;29.70;;;13.00;99.90;;;;;;5001827;28;20458;-53
2021/09/17 04:58:48;;;;;;;40.33;30.23;;;13.00;99.90;;;;;;4984797;28;20054;-53
2021/09/17 05:01:13;;;;;;;40.78;30.65;;;13.00;99.90;;;;;;5009867;28;20038;-51
2021/09/17 05:03:39;;;;;;;41.33;30.17;;;13.00;99.90;;;;;;4987792;28;20364;-52
2021/09/17 05:06:04;;;;;;;41.53;30.52;;;13.00;99.90;;;;;;5011729;28;20037;-50
2021/09/17 05:08:30;;;;;;;35.65;28.88;;;13.00;99.90;;;;;;5014612;28;20048;-50
2021/09/17 05:10:56;;;;;;;34.75;28.75;;;13.00;99.90;;;;;;5010290;28;20545;-52
2021/09/17 05:13:21;;;;;;;36.80;29.55;;;13.00;99.90;;;;;;5011390;28;20080;-52
2021/09/17 05:15:47;;;;;;;36.22;29.52;;;13.00;99.90;;;;;;5012874;28;20041;-50
2021/09/17 05:18:13;;;;;;;37.42;28.50;;;13.00;99.90;;;;;;5012898;28;20468;-50
2021/09/17 05:20:38;;;;;;;37.70;29.63;;;13.00;99.90;;;;;;5011955;28;20106;-53
2021/09/17 05:23:05;;;;;;;36.85;28.98;;;13.00;99.90;;;;;;5011232;28;20030;-54
2021/09/17 05:25:31;;;;;;;38.45;29.58;;;13.00;99.90;;;;;;4972142;28;20069;-52
2021/09/17 05:27:56;;;;;;;37.70;29.65;;;13.00;99.90;;;;;;4973793;28;20060;-53
2021/09/17 05:30:23;;;;;;;45.58;31.23;;;13.10;99.90;;;;;;5005740;28;20487;-50
2021/09/17 05:32:49;;;;;;;46.35;32.30;;;13.10;99.90;;;;;;5012146;28;20069;-52
2021/09/17 05:35:15;;;;;;;50.95;34.30;;;13.10;99.90;;;;;;4975735;28;20038;-51
2021/09/17 05:37:40;;;;;;;48.10;33.40;;;13.10;99.90;;;;;;4993430;28;20084;-53
2021/09/17 05:40:07;;;;;;;47.92;34.03;;;13.10;99.90;;;;;;5008377;28;20045;-51
2021/09/17 05:42:33;;;;;;;92.25;35.63;;;13.10;99.90;;;;;;4963473;28;20046;-52
2021/09/17 05:44:58;;;;;;;130.82;37.35;;;13.20;99.90;;;;;;5006713;28;20400;-54
2021/09/17 05:47:24;;;;;;;63.95;36.75;;;13.20;99.90;;;;;;5009687;28;20034;-51
2021/09/17 05:49:49;;;;;;;60.28;37.05;;;13.20;99.90;;;;;;4966290;28;20047;-52
2021/09/17 05:52:15;;;;;;;83.70;36.95;;;13.20;99.90;;;;;;5006688;28;20085;-53
2021/09/17 05:54:41;;;;;;;107.43;41.55;;;13.20;99.90;;;;;;5007766;28;20045;-55
2021/09/17 05:57:07;;;;;;;136.18;40.63;;;13.30;99.90;;;;;;4992198;28;20048;-53
2021/09/17 05:59:33;;;;;;;84.63;39.78;;;13.30;99.90;;;;;;4989179;28;20134;-55
2021/09/17 06:01:58;;;;;;;73.32;40.70;;;13.30;99.90;;;;;;5022512;28;20459;-55
2021/09/17 06:04:24;;;;;;;82.80;40.30;;;13.30;99.90;;;;;;5014406;28;20065;-55
2021/09/17 06:06:49;;;;;;;64.32;39.90;;;13.30;99.90;;;;;;4999896;28;20033;-55
2021/09/17 06:09:15;;;;;;;75.22;42.00;;;13.40;99.90;;;;;;4999715;28;20042;-55
2021/09/17 06:11:41;;;;;;;77.20;40.13;;;13.40;99.90;;;;;;5004915;28;20137;-56
2021/09/17 06:14:07;;;;;;;90.88;41.75;;;13.50;99.90;;;;;;4971688;28;20060;-56
2021/09/17 06:16:34;;;;;;;73.88;41.08;;;13.50;99.90;;;;;;5011714;28;20489;-56
2021/09/17 06:19:03;;;;;;;111.40;45.72;;;13.50;99.90;;;;;;5031230;28;20049;-56
2021/09/17 06:21:30;;;;;;;114.43;46.10;;;13.50;99.90;;;;;;4985006;28;20042;-56
2021/09/17 06:23:57;;;;;;;96.32;44.03;;;13.50;99.90;;;;;;4960250;28;20056;-54
2021/09/17 06:26:22;;;;;;;82.55;44.45;;;13.60;99.90;;;;;;4992288;28;20042;-53
2021/09/17 06:28:48;;;;;;;80.20;42.40;;;13.60;99.90;;;;;;4995672;28;20038;-53
2021/09/17 06:31:14;;;;;;;72.78;41.88;;;13.60;99.90;;;;;;5003917;28;20052;-56
2021/09/17 06:33:39;;;;;;;85.53;43.70;;;13.60;99.90;;;;;;5000096;28;20101;-56
2021/09/17 06:36:05;;;;;;;73.25;43.33;;;13.70;99.90;;;;;;5005482;28;20041;-56
2021/09/17 06:38:31;;;;;;;73.50;42.63;;;13.70;99.90;;;;;;5011894;28;20056;-56
2021/09/17 06:40:57;;;;;;;81.65;44.58;;;13.80;99.90;;;;;;5023258;28;20038;-56
2021/09/17 06:43:23;;;;;;;74.00;43.72;;;13.80;99.90;;;;;;5013425;28;20046;-56
2021/09/17 06:45:48;;;;;;;71.13;41.00;;;13.90;99.90;;;;;;4995184;28;20139;-56
2021/09/17 06:48:16;;;;;;;70.65;42.10;;;13.90;99.90;;;;;;4994558;28;20073;-55
2021/09/17 06:50:43;;;;;;;81.00;45.00;;;14.00;99.90;;;;;;5026953;28;20034;-55
2021/09/17 06:53:08;;;;;;;73.40;42.35;;;14.00;99.90;;;;;;5010893;28;20088;-56
2021/09/17 06:55:34;;;;;;;70.15;41.75;;;14.00;99.90;;;;;;4997526;28;20038;-55
2021/09/17 06:58:02;;;;;;;76.28;44.00;;;14.10;99.90;;;;;;4992464;28;20507;-56
2021/09/17 07:00:31;;;;;;;71.72;42.53;;;14.10;99.90;;;;;;5011041;28;20169;-56
2021/09/17 07:02:57;;;;;;;70.70;42.35;;;14.20;99.90;;;;;;4998018;28;20037;-56
2021/09/17 07:05:24;;;;;;;74.20;43.13;;;14.20;99.90;;;;;;5012154;28;20045;-54
2021/09/17 07:07:50;;;;;;;79.00;43.58;;;14.30;99.90;;;;;;4979731;28;20053;-56
2021/09/17 07:10:17;;;;;;;73.68;42.60;;;14.30;99.90;;;;;;4964017;28;20038;-56
2021/09/17 07:12:44;;;;;;;76.22;43.35;;;14.40;99.90;;;;;;5010951;28;20121;-56
2021/09/17 07:15:12;;;;;;;67.93;42.45;;;14.40;99.90;;;;;;5000609;28;20030;-56
2021/09/17 07:17:38;;;;;;;76.53;43.30;;;14.40;99.90;;;;;;4997201;28;20038;-54
2021/09/17 07:20:04;;;;;;;70.00;41.50;;;14.50;99.90;;;;;;5008959;28;20049;-54
2021/09/17 07:22:30;;;;;;;72.65;42.78;;;14.50;99.90;;;;;;4996683;28;20423;-55
2021/09/17 07:24:55;;;;;;;77.68;44.30;;;14.50;99.90;;;;;;5014054;28;20104;-55
2021/09/17 07:27:21;;;;;;;73.40;44.17;;;14.60;99.90;;;;;;5014200;28;20037;-55
2021/09/17 07:29:46;;;;;;;79.13;44.72;;;14.60;99.90;;;;;;4998947;28;20056;-55
2021/09/17 07:32:12;;;;;;;81.47;44.03;;;14.70;99.90;;;;;;4996238;28;20042;-55
2021/09/17 07:34:37;;;;;;;75.22;43.83;;;14.70;99.90;;;;;;4982482;28;20041;-55
2021/09/17 07:37:03;;;;;;;75.15;44.92;;;14.70;99.90;;;;;;5005967;28;20038;-54
2021/09/17 07:39:29;;;;;;;75.03;42.05;;;14.80;99.90;;;;;;4988868;28;20066;-54
2021/09/17 07:41:55;;;;;;;74.00;44.15;;;14.80;99.90;;;;;;5013727;28;20042;-56
2021/09/17 07:44:20;;;;;;;79.18;44.17;;;14.80;99.90;;;;;;4995506;28;20046;-55
2021/09/17 07:46:46;;;;;;;74.38;43.95;;;14.90;99.90;;;;;;5016392;28;20057;-55
2021/09/17 07:49:12;;;;;;;78.15;44.78;;;14.90;99.90;;;;;;5001221;28;20037;-55
2021/09/17 07:51:37;;;;;;;74.53;42.58;;;14.90;99.90;;;;;;5011220;28;20049;-55
2021/09/17 07:54:03;;;;;;;69.93;43.38;;;14.90;99.90;;;;;;5003550;28;20034;-55
2021/09/17 07:56:28;;;;;;;69.38;42.72;;;15.00;99.90;;;;;;5001821;28;20041;-55
2021/09/17 07:58:54;;;;;;;78.53;45.08;;;15.00;99.90;;;;;;5022284;28;20495;-55
2021/09/17 08:01:20;;;;;;;76.93;42.40;;;15.10;99.90;;;;;;4969223;28;20526;-56
2021/09/17 08:03:46;;;;;;;75.15;42.65;;;15.20;99.90;;;;;;4989777;28;20504;-55
2021/09/17 08:06:14;;;;;;;72.38;42.63;;;15.30;99.90;;;;;;4993302;28;20042;-54
2021/09/17 08:08:40;;;;;;;66.18;41.67;;;15.30;99.90;;;;;;5010418;28;20042;-53
2021/09/17 08:11:05;;;;;;;66.00;40.58;;;15.30;99.90;;;;;;5006725;28;20043;-55
2021/09/17 08:13:31;;;;;;;68.57;41.80;;;15.40;99.90;;;;;;5009239;28;20442;-55
2021/09/17 08:15:59;;;;;;;61.35;39.28;;;15.50;99.90;;;;;;5008036;28;20057;-55
2021/09/17 08:18:25;;;;;;;61.60;38.92;;;15.60;99.90;;;;;;5010068;28;20065;-55
2021/09/17 08:20:52;;;;;;;61.72;38.70;;;15.70;99.90;;;;;;4987288;28;20083;-55
2021/09/17 08:23:19;;;;;;;61.42;38.97;;;15.70;99.90;;;;;;4966159;28;20042;-55
2021/09/17 08:25:54;;;;;;;59.47;37.90;;;15.80;99.90;;;;;;5011259;28;20064;-55
2021/09/17 08:28:21;;;;;;;60.88;38.90;;;15.80;99.90;;;;;;5013656;28;20080;-55
2021/09/17 08:30:47;;;;;;;65.70;39.75;;;15.90;99.90;;;;;;4982092;28;20041;-55
2021/09/17 08:33:12;;;;;;;60.85;38.80;;;15.90;99.90;;;;;;4999759;28;20041;-55
2021/09/17 08:35:38;;;;;;;61.92;39.10;;;15.90;99.90;;;;;;5013277;28;20138;-53
2021/09/17 08:38:03;;;;;;;58.95;37.33;;;16.00;99.90;;;;;;4997896;28;20085;-54
2021/09/17 08:40:29;;;;;;;56.53;36.33;;;16.00;99.90;;;;;;4985266;28;20395;-53
2021/09/17 08:42:59;;;;;;;54.03;35.85;;;16.00;99.90;;;;;;5000647;28;20558;-55
2021/09/17 08:45:26;;;;;;;57.08;36.65;;;16.10;99.90;;;;;;5009220;28;20046;-56
2021/09/17 08:47:51;;;;;;;51.20;34.08;;;16.10;99.90;;;;;;5002728;28;20056;-55
2021/09/17 08:50:18;;;;;;;54.55;34.63;;;16.20;99.90;;;;;;5012471;28;20038;-56
2021/09/17 08:52:44;;;;;;;53.33;35.15;;;16.20;99.90;;;;;;5005897;28;20045;-55
2021/09/17 08:55:10;;;;;;;53.28;35.95;;;16.20;99.90;;;;;;4999049;28;20033;-54
2021/09/17 08:57:36;;;;;;;49.88;33.65;;;16.30;99.90;;;;;;4994208;28;20104;-53
2021/09/17 09:00:05;;;;;;;47.95;33.47;;;16.30;99.90;;;;;;5006665;28;20518;-51
2021/09/17 09:02:31;;;;;;;48.30;34.28;;;16.30;99.90;;;;;;5010700;28;20046;-53
2021/09/17 09:05:05;;;;;;;48.22;33.13;;;16.40;99.90;;;;;;5013433;28;20052;-53
2021/09/17 09:07:38;;;;;;;46.38;32.33;;;16.50;99.90;;;;;;4970929;28;20125;-52
2021/09/17 09:10:06;;;;;;;46.70;31.63;;;16.50;99.90;;;;;;5014469;28;20395;-53
2021/09/17 09:12:32;;;;;;;42.40;31.20;;;16.40;99.90;;;;;;5004945;28;20108;-55
2021/09/17 09:15:34;;;;;;;45.97;29.95;;;16.50;99.90;;;;;;5004247;28;20034;-54
2021/09/17 09:18:06;;;;;;;40.75;28.25;;;16.50;99.90;;;;;;4967288;28;20057;-56
2021/09/17 09:20:54;;;;;;;38.05;27.10;;;16.60;99.90;;;;;;4972415;28;20042;-55
2021/09/17 09:23:28;;;;;;;38.05;27.83;;;16.60;99.90;;;;;;5001409;28;20078;-55
2021/09/17 09:26:03;;;;;;;42.10;28.52;;;16.50;99.90;;;;;;5003245;28;20042;-54
2021/09/17 09:28:35;;;;;;;38.63;27.92;;;16.60;99.90;;;;;;5011870;28;20059;-56
2021/09/17 09:31:09;;;;;;;41.55;29.98;;;16.60;99.90;;;;;;5007924;28;20042;-56
2021/09/17 09:33:36;;;;;;;41.00;28.95;;;16.60;99.90;;;;;;4996077;28;20087;-56
2021/09/17 09:36:09;;;;;;;39.08;29.10;;;16.60;99.90;;;;;;5023377;28;20398;-54
2021/09/17 09:38:45;;;;;;;44.95;28.83;;;16.60;99.90;;;;;;4995346;28;20034;-56
2021/09/17 09:41:15;;;;;;;43.60;28.75;;;16.70;99.90;;;;;;4983096;28;20078;-56
2021/09/17 09:43:52;;;;;;;40.97;28.40;;;16.70;99.90;;;;;;4995265;28;20522;-53
2021/09/17 09:46:38;;;;;;;42.95;28.33;;;16.70;99.90;;;;;;4980018;28;20061;-55
2021/09/17 09:49:22;;;;;;;40.08;28.65;;;16.80;99.90;;;;;;5013340;28;20046;-55
2021/09/17 09:51:57;;;;;;;36.63;27.40;;;16.80;99.90;;;;;;4975108;28;20487;-54
2021/09/17 09:54:24;;;;;;;39.80;26.85;;;16.90;99.90;;;;;;4991405;28;20038;-56
2021/09/17 09:56:52;;;;;;;39.40;26.63;;;16.90;99.90;;;;;;5008717;28;20029;-55
2021/09/17 09:59:30;;;;;;;44.47;28.95;;;17.00;99.90;;;;;;4984295;28;20149;-55
2021/09/17 10:01:59;;;;;;;36.78;27.63;;;17.00;99.90;;;;;;4978735;28;20383;-54
2021/09/17 10:04:26;;;;;;;39.60;28.13;;;17.00;99.90;;;;;;5009327;28;20049;-53
2021/09/17 10:07:07;;;;;;;35.05;26.15;;;17.10;99.90;;;;;;4995124;28;20054;-50
2021/09/17 10:09:35;;;;;;;37.35;27.08;;;17.10;99.90;;;;;;4967622;28;20052;-53
2021/09/17 10:12:02;;;;;;;32.15;25.20;;;17.10;99.90;;;;;;4997364;28;20050;-56
2021/09/17 10:14:30;;;;;;;33.15;25.40;;;17.10;99.90;;;;;;5010924;28;20034;-52
2021/09/17 10:16:58;;;;;;;36.25;25.75;;;17.20;99.90;;;;;;5004565;28;20048;-56
2021/09/17 10:19:25;;;;;;;31.98;24.75;;;17.20;99.90;;;;;;5004063;28;20477;-52
2021/09/17 10:21:53;;;;;;;31.77;23.92;;;17.20;99.90;;;;;;4997034;28;20126;-54
2021/09/17 10:24:38;;;;;;;31.55;23.92;;;17.20;99.90;;;;;;4997571;28;20042;-52
2021/09/17 10:27:10;;;;;;;31.85;24.02;;;17.30;99.90;;;;;;4991304;28;20499;-54
2021/09/17 10:29:45;;;;;;;34.08;24.52;;;17.30;99.90;;;;;;4999210;28;20041;-53
2021/09/17 10:32:26;;;;;;;29.67;23.52;;;17.30;99.90;;;;;;4988686;28;20049;-50
2021/09/17 10:35:15;;;;;;;32.15;24.77;;;17.40;99.90;;;;;;5006332;28;20045;-50
2021/09/17 10:37:53;;;;;;;36.47;24.63;;;17.40;99.90;;;;;;4997835;28;20565;-50
2021/09/17 10:40:41;;;;;;;33.33;25.05;;;17.50;99.90;;;;;;4981988;28;20054;-53
2021/09/17 10:43:10;;;;;;;36.15;25.80;;;17.50;99.90;;;;;;4996281;28;20053;-55
2021/09/17 10:45:44;;;;;;;35.28;25.95;;;17.50;99.90;;;;;;5023697;28;20498;-54
2021/09/17 10:48:14;;;;;;;36.15;26.13;;;17.60;99.90;;;;;;5006011;28;20038;-54
2021/09/17 10:50:45;;;;;;;36.58;25.63;;;17.60;99.90;;;;;;4988541;28;20053;-54
2021/09/17 10:53:12;;;;;;;37.17;26.70;;;17.70;99.90;;;;;;4999992;28;20042;-50
2021/09/17 10:55:44;;;;;;;37.83;27.15;;;17.70;99.70;;;;;;5028872;28;20038;-56
2021/09/17 10:58:31;;;;;;;36.63;27.85;;;17.70;99.10;;;;;;5005537;28;20061;-53
2021/09/17 11:01:09;;;;;;;37.42;28.60;;;17.80;99.10;;;;;;4998441;28;20090;-54
2021/09/17 11:03:50;;;;;;;37.38;27.13;;;17.80;98.80;;;;;;4988496;28;20088;-53
2021/09/17 11:06:23;;;;;;;39.40;26.88;;;17.80;98.80;;;;;;5019007;28;20429;-51
2021/09/17 11:08:52;;;;;;;37.35;26.98;;;17.80;98.70;;;;;;5008286;28;20049;-52
2021/09/17 11:11:30;;;;;;;43.15;28.38;;;17.80;98.80;;;;;;4996760;28;20042;-55
2021/09/17 11:14:00;;;;;;;39.65;28.48;;;17.80;98.90;;;;;;4990123;28;20042;-54
2021/09/17 11:16:27;;;;;;;38.28;28.10;;;17.90;98.60;;;;;;5002392;28;20034;-50
2021/09/17 11:19:00;;;;;;;46.00;28.60;;;17.90;97.80;;;;;;5000859;28;20034;-55
2021/09/17 11:21:28;;;;;;;41.38;29.65;;;17.90;98.00;;;;;;4998797;28;20129;-53
2021/09/17 11:23:54;;;;;;;41.35;29.85;;;17.90;98.00;;;;;;5006928;28;20182;-52
2021/09/17 11:26:26;;;;;;;43.80;30.08;;;17.90;98.00;;;;;;5009438;28;20037;-50
2021/09/17 11:28:57;;;;;;;40.53;29.50;;;18.00;97.40;;;;;;5002748;28;20042;-53
2021/09/17 11:31:25;;;;;;;40.15;29.55;;;18.00;97.50;;;;;;4974092;28;20046;-56
2021/09/17 11:34:21;;;;;;;34.95;26.83;;;18.00;97.50;;;;;;4999878;28;20054;-56
2021/09/17 11:36:51;;;;;;;36.60;27.20;;;18.10;97.40;;;;;;4991873;28;20449;-57
2021/09/17 11:39:36;;;;;;;35.05;27.45;;;18.20;97.40;;;;;;5018181;28;20038;-55
2021/09/17 11:42:14;;;;;;;36.88;26.75;;;18.20;97.10;;;;;;5016476;28;20042;-56
2021/09/17 11:44:49;;;;;;;35.92;27.65;;;18.30;97.00;;;;;;5016021;28;20536;-57
2021/09/17 11:47:31;;;;;;;35.75;26.83;;;18.30;97.10;;;;;;5016812;28;20042;-57
2021/09/17 11:50:08;;;;;;;;;;;18.30;97.30;;;;;;4998440;28;20038;-56
2021/09/17 11:52:45;;;;;;;38.70;27.42;;;18.40;97.10;;;;;;4995916;28;19922;-55
2021/09/17 11:55:13;;;;;;;36.08;27.30;;;18.40;97.20;;;;;;5003528;28;20541;-57
2021/09/17 11:57:42;;;;;;;35.65;27.10;;;18.40;97.20;;;;;;5008269;28;20113;-56
2021/09/17 12:00:09;;;;;;;34.30;25.75;;;18.50;97.40;;;;;;5016098;28;20092;-56
2021/09/17 12:02:35;;;;;;;34.95;25.85;;;18.50;97.30;;;;;;5002783;28;20145;-57
2021/09/17 12:05:03;;;;;;;35.97;26.20;;;18.50;97.00;;;;;;4998009;28;20054;-57
2021/09/17 12:07:30;;;;;;;36.10;26.25;;;18.60;96.80;;;;;;4996105;28;20449;-57
2021/09/17 12:09:56;;;;;;;34.83;26.98;;;18.60;96.80;;;;;;4998742;28;20038;-57
2021/09/17 12:12:33;;;;;;;36.97;27.83;;;18.60;96.90;;;;;;5008732;28;20518;-57
2021/09/17 12:14:59;;;;;;;35.13;25.63;;;18.60;96.50;;;;;;5006528;28;20042;-57
2021/09/17 12:17:24;;;;;;;31.52;24.70;;;18.60;96.60;;;;;;5004796;28;20038;-57
2021/09/17 12:19:58;;;;;;;34.72;25.52;;;18.60;96.40;;;;;;4999559;28;20105;-57
2021/09/17 12:22:36;;;;;;;31.90;24.88;;;18.60;96.00;;;;;;4996103;28;20046;-55
2021/09/17 12:25:16;;;;;;;33.45;24.17;;;18.60;95.80;;;;;;5004456;28;20049;-57
2021/09/17 12:27:47;;;;;;;34.72;26.60;;;18.80;95.80;;;;;;4997203;28;20081;-57
2021/09/17 12:30:21;;;;;;;32.08;24.92;;;18.90;95.20;;;;;;4967443;28;20498;-57